createdAt,value
2022-08-25T00:01:41.180Z,59.80
2022-08-25T00:04:11.280Z,59.90
2022-08-25T00:06:39.685Z,59.90
2022-08-25T00:09:10.118Z,59.80
2022-08-25T00:11:39.101Z,59.90
2022-08-25T00:14:09.299Z,60.00
2022-08-25T00:16:37.056Z,60.00
2022-08-25T00:19:08.612Z,60.10
2022-08-25T00:21:36.613Z,60.00
2022-08-25T00:24:05.476Z,60.10
2022-08-25T00:26:34.550Z,60.10
2022-08-25T00:29:02.526Z,60.20
2022-08-25T00:31:38.134Z,60.20
2022-08-25T00:34:08.752Z,60.20
2022-08-25T00:36:36.601Z,60.20
2022-08-25T00:39:05.145Z,60.20
2022-08-25T00:41:35.502Z,60.20
2022-08-25T00:44:05.998Z,60.20
2022-08-25T00:46:36.665Z,60.20
2022-08-25T00:49:08.949Z,60.10
2022-08-25T00:51:48.584Z,60.20
2022-08-25T00:54:19.399Z,60.20
2022-08-25T00:56:50.629Z,60.30
2022-08-25T00:59:20.532Z,60.20
2022-08-25T01:01:49.315Z,60.40
2022-08-25T01:04:17.609Z,60.40
2022-08-25T01:06:46.686Z,60.50
2022-08-25T01:09:15.070Z,60.50
2022-08-25T01:11:44.724Z,60.70
2022-08-25T01:14:16.778Z,60.80
2022-08-25T01:16:44.950Z,60.70
2022-08-25T01:19:16.153Z,60.80
2022-08-25T01:21:48.037Z,60.90
2022-08-25T01:24:24.349Z,60.80
2022-08-25T01:26:52.337Z,61.00
2022-08-25T01:32:20.490Z,60.90
2022-08-25T01:34:48.348Z,61.10
2022-08-25T01:37:20.952Z,61.20
2022-08-25T01:39:48.828Z,61.10
2022-08-25T01:42:33.850Z,61.30
2022-08-25T01:45:03.709Z,61.20
2022-08-25T01:47:31.883Z,61.40
2022-08-25T01:49:59.632Z,61.30
2022-08-25T01:52:30.745Z,61.40
2022-08-25T01:54:58.510Z,61.50
2022-08-25T01:57:26.274Z,61.60
2022-08-25T01:59:54.031Z,62.20
2022-08-25T02:02:21.984Z,61.60
2022-08-25T02:04:50.731Z,61.60
2022-08-25T02:07:19.079Z,61.60
2022-08-25T02:09:48.215Z,61.70
2022-08-25T02:12:16.040Z,61.70
2022-08-25T02:14:45.777Z,61.80
2022-08-25T02:17:13.521Z,61.80
2022-08-25T02:19:41.344Z,61.90
2022-08-25T02:25:07.705Z,61.90
2022-08-25T02:27:35.700Z,62.00
2022-08-25T02:30:05.740Z,62.00
2022-08-25T02:32:33.756Z,62.10
2022-08-25T02:35:04.820Z,62.20
2022-08-25T02:37:32.779Z,62.20
2022-08-25T02:42:58.131Z,62.30
2022-08-25T02:45:25.914Z,62.40
2022-08-25T02:47:56.750Z,62.40
2022-08-25T02:50:24.833Z,62.50
2022-08-25T02:52:52.600Z,62.50
2022-08-25T02:55:20.882Z,62.60
2022-08-25T02:57:48.814Z,62.60
2022-08-25T03:00:18.714Z,62.70
2022-08-25T03:02:46.798Z,62.80
2022-08-25T03:05:15.835Z,62.90
2022-08-25T03:07:46.049Z,63.00
2022-08-25T03:10:20.160Z,62.90
2022-08-25T03:12:47.948Z,63.20
2022-08-25T03:15:18.807Z,63.10
2022-08-25T03:17:47.345Z,63.20
2022-08-25T03:20:20.289Z,63.30
2022-08-25T03:22:48.776Z,63.30
2022-08-25T03:25:34.897Z,63.30
2022-08-25T03:28:02.983Z,63.40
2022-08-25T03:30:32.157Z,63.50
2022-08-25T03:33:00.154Z,63.50
2022-08-25T03:35:28.026Z,63.60
2022-08-25T03:37:57.592Z,63.60
2022-08-25T03:40:26.187Z,63.70
2022-08-25T03:43:00.810Z,63.70
2022-08-25T03:45:28.645Z,63.90
2022-08-25T03:47:57.836Z,64.00
2022-08-25T03:50:25.749Z,64.10
2022-08-25T03:52:55.500Z,64.10
2022-08-25T03:55:26.806Z,64.20
2022-08-25T03:57:55.757Z,64.20
2022-08-25T04:00:24.213Z,64.40
2022-08-25T04:02:52.055Z,64.40
2022-08-25T04:05:21.402Z,64.50
2022-08-25T04:07:49.139Z,64.40
2022-08-25T04:10:17.110Z,64.50
2022-08-25T04:12:45.261Z,64.70
2022-08-25T04:15:13.064Z,64.60
2022-08-25T04:17:41.649Z,64.70
2022-08-25T04:20:11.137Z,64.80
2022-08-25T04:22:44.969Z,64.80
2022-08-25T04:25:13.316Z,65.00
2022-08-25T04:27:41.445Z,65.10
2022-08-25T04:30:10.818Z,65.20
2022-08-25T04:32:38.585Z,65.10
2022-08-25T04:35:07.464Z,65.20
2022-08-25T04:37:35.811Z,65.30
2022-08-25T04:40:05.784Z,65.30
2022-08-25T04:42:33.686Z,65.30
2022-08-25T04:45:03.854Z,65.50
2022-08-25T04:47:31.581Z,65.50
2022-08-25T04:49:59.346Z,65.70
2022-08-25T04:52:27.119Z,65.70
2022-08-25T04:54:55.337Z,65.80
2022-08-25T04:57:24.458Z,66.00
2022-08-25T04:59:52.445Z,66.00
2022-08-25T05:02:20.545Z,66.00
2022-08-25T05:04:48.365Z,66.00
2022-08-25T05:07:16.097Z,66.10
2022-08-25T05:09:44.055Z,66.10
2022-08-25T05:12:11.870Z,66.30
2022-08-25T05:14:41.733Z,66.40
2022-08-25T05:17:09.619Z,66.30
2022-08-25T05:19:37.355Z,66.40
2022-08-25T05:22:05.291Z,66.60
2022-08-25T05:24:33.104Z,66.70
2022-08-25T05:27:01.102Z,66.70
2022-08-25T05:29:28.870Z,66.80
2022-08-25T05:31:58.038Z,66.80
2022-08-25T05:34:25.826Z,66.90
2022-08-25T05:36:54.441Z,66.80
2022-08-25T05:39:27.204Z,66.90
2022-08-25T05:41:54.972Z,67.00
2022-08-25T05:44:22.736Z,67.00
2022-08-25T05:46:51.355Z,66.90
2022-08-25T05:49:20.582Z,67.00
2022-08-25T05:51:48.467Z,67.00
2022-08-25T05:54:16.356Z,67.00
2022-08-25T05:56:45.617Z,67.00
2022-08-25T05:59:13.378Z,67.00
2022-08-25T06:01:58.640Z,67.00
2022-08-25T06:04:28.070Z,67.00
2022-08-25T06:06:55.780Z,67.00
2022-08-25T06:09:24.183Z,67.10
2022-08-25T06:11:54.952Z,67.30
2022-08-25T06:14:23.081Z,67.40
2022-08-25T06:16:51.514Z,67.40
2022-08-25T06:19:20.305Z,67.40
2022-08-25T06:21:49.578Z,68.10
2022-08-25T06:24:17.373Z,67.20
2022-08-25T06:26:45.150Z,67.50
2022-08-25T06:29:14.084Z,67.10
2022-08-25T06:31:42.687Z,67.10
2022-08-25T06:34:10.754Z,67.00
2022-08-25T06:36:38.517Z,67.00
2022-08-25T06:39:07.757Z,66.90
2022-08-25T06:41:38.933Z,66.80
2022-08-25T06:44:06.802Z,66.70
2022-08-25T06:46:36.448Z,66.60
2022-08-25T06:49:05.591Z,66.70
2022-08-25T06:51:35.849Z,66.70
2022-08-25T06:54:04.382Z,66.50
2022-08-25T06:56:34.476Z,66.50
2022-08-25T06:59:02.748Z,66.50
2022-08-25T07:01:31.910Z,66.50
2022-08-25T07:04:01.805Z,66.40
2022-08-25T07:06:32.078Z,66.40
2022-08-25T07:09:00.197Z,66.40
2022-08-25T07:11:28.725Z,66.40
2022-08-25T07:13:57.822Z,66.40
2022-08-25T07:16:29.583Z,66.40
2022-08-25T07:18:59.024Z,66.40
2022-08-25T07:21:33.481Z,66.20
2022-08-25T07:24:06.405Z,66.20
2022-08-25T07:26:38.622Z,66.00
2022-08-25T07:29:11.333Z,66.10
2022-08-25T07:31:39.418Z,66.10
2022-08-25T07:34:25.780Z,66.20
2022-08-25T07:36:54.002Z,66.00
2022-08-25T07:39:22.254Z,67.00
2022-08-25T07:41:52.316Z,66.00
2022-08-25T07:44:23.283Z,66.00
2022-08-25T07:46:52.358Z,65.90
2022-08-25T07:49:23.782Z,66.10
2022-08-25T07:52:05.238Z,66.00
2022-08-25T07:54:35.439Z,65.90
2022-08-25T07:57:07.025Z,65.90
2022-08-25T07:59:39.977Z,65.80
2022-08-25T08:02:17.766Z,65.80
2022-08-25T08:04:48.463Z,65.80
2022-08-25T08:07:18.397Z,65.80
2022-08-25T08:09:46.938Z,65.80
2022-08-25T08:12:15.188Z,65.70
2022-08-25T08:14:45.163Z,65.70
2022-08-25T08:17:14.548Z,65.70
2022-08-25T08:19:45.363Z,65.70
2022-08-25T08:22:19.126Z,65.70
2022-08-25T08:24:54.919Z,65.50
2022-08-25T08:27:25.014Z,65.50
2022-08-25T08:29:54.541Z,65.40
2022-08-25T08:32:25.184Z,65.30
2022-08-25T08:35:03.289Z,65.20
2022-08-25T08:37:31.409Z,65.10
2022-08-25T08:40:01.404Z,65.00
2022-08-25T08:42:47.005Z,65.00
2022-08-25T08:45:27.626Z,65.00
2022-08-25T08:48:19.368Z,65.00
2022-08-25T08:50:57.616Z,64.90
2022-08-25T08:53:33.927Z,64.90
2022-08-25T08:56:06.762Z,64.80
2022-08-25T08:58:42.373Z,64.60
2022-08-25T09:01:18.619Z,64.40
2022-08-25T09:03:55.274Z,64.40
2022-08-25T09:06:29.666Z,64.30
2022-08-25T09:09:01.968Z,64.10
2022-08-25T09:11:52.883Z,64.00
2022-08-25T09:14:40.059Z,64.00
2022-08-25T09:17:19.243Z,63.80
2022-08-25T09:20:29.516Z,63.60
2022-08-25T09:23:03.175Z,63.50
2022-08-25T09:25:52.933Z,63.50
2022-08-25T09:28:24.506Z,63.50
2022-08-25T09:30:58.983Z,63.40
2022-08-25T09:33:31.134Z,63.30
2022-08-25T09:36:04.560Z,63.10
2022-08-25T09:38:34.762Z,63.00
2022-08-25T09:41:03.148Z,62.90
2022-08-25T09:43:33.813Z,62.80
2022-08-25T09:46:04.146Z,62.80
2022-08-25T09:48:40.606Z,62.70
2022-08-25T09:51:18.912Z,62.70
2022-08-25T09:53:52.753Z,62.60
2022-08-25T09:56:22.994Z,62.40
2022-08-25T09:58:51.658Z,62.40
2022-08-25T10:01:22.462Z,62.30
2022-08-25T10:04:00.941Z,62.00
2022-08-25T10:06:36.879Z,62.10
2022-08-25T10:09:07.107Z,62.10
2022-08-25T10:11:57.996Z,62.00
2022-08-25T10:14:34.092Z,61.80
2022-08-25T10:17:24.627Z,61.70
2022-08-25T10:20:17.126Z,61.70
2022-08-25T10:22:45.876Z,61.40
2022-08-25T10:25:18.127Z,61.30
2022-08-25T10:27:58.744Z,61.90
2022-08-25T10:30:32.879Z,61.10
2022-08-25T10:33:12.502Z,60.90
2022-08-25T10:35:53.751Z,60.80
2022-08-25T10:38:49.381Z,60.70
2022-08-25T10:41:35.017Z,60.80
2022-08-25T10:44:33.004Z,60.60
2022-08-25T10:47:28.330Z,60.50
2022-08-25T10:49:57.227Z,60.20
2022-08-25T10:52:39.079Z,59.90
2022-08-25T10:55:14.905Z,60.00
2022-08-25T10:57:53.540Z,59.90
2022-08-25T11:00:23.617Z,59.90
2022-08-25T11:03:20.235Z,59.60
2022-08-25T11:05:54.465Z,59.40
2022-08-25T11:08:33.670Z,59.20
2022-08-25T11:11:08.125Z,59.10
2022-08-25T11:13:43.792Z,59.00
2022-08-25T11:16:21.739Z,58.80
2022-08-25T11:18:55.186Z,58.70
2022-08-25T11:21:28.180Z,58.70
2022-08-25T11:24:05.699Z,58.60
2022-08-25T11:26:37.320Z,58.60
2022-08-25T11:29:13.148Z,58.40
2022-08-25T11:31:47.338Z,58.10
2022-08-25T11:34:20.291Z,58.30
2022-08-25T11:36:54.132Z,58.30
2022-08-25T11:39:37.479Z,58.20
2022-08-25T11:42:16.846Z,58.30
2022-08-25T11:44:54.982Z,58.90
2022-08-25T11:47:44.409Z,58.10
2022-08-25T11:54:05.311Z,57.80
2022-08-25T11:56:40.266Z,57.50
2022-08-25T11:59:09.261Z,57.40
2022-08-25T12:02:28.850Z,57.20
2022-08-25T12:04:57.641Z,57.30
2022-08-25T12:07:28.974Z,57.00
2022-08-25T12:10:21.722Z,57.10
2022-08-25T12:13:10.297Z,56.40
2022-08-25T12:16:03.092Z,56.80
2022-08-25T12:18:46.492Z,57.00
2022-08-25T12:21:32.122Z,56.90
2022-08-25T12:24:17.839Z,56.60
2022-08-25T12:26:53.668Z,56.50
2022-08-25T12:29:30.834Z,56.20
2022-08-25T12:32:20.846Z,56.20
2022-08-25T12:35:10.818Z,56.30
2022-08-25T12:38:07.091Z,55.70
2022-08-25T12:40:38.689Z,55.80
2022-08-25T12:43:13.797Z,55.50
2022-08-25T12:45:51.121Z,55.70
2022-08-25T12:48:44.006Z,55.60
2022-08-25T12:51:19.401Z,55.40
2022-08-25T12:53:50.967Z,55.50
2022-08-25T12:56:29.381Z,55.50
2022-08-25T12:59:09.835Z,55.40
2022-08-25T13:01:54.362Z,55.20
2022-08-25T13:04:53.614Z,55.20
2022-08-25T13:07:35.861Z,55.00
2022-08-25T13:10:21.817Z,54.70
2022-08-25T13:12:56.114Z,54.70
2022-08-25T13:15:39.673Z,54.90
2022-08-25T13:18:23.646Z,54.50
2022-08-25T13:20:55.748Z,54.30
2022-08-25T13:23:27.337Z,54.20
2022-08-25T13:25:58.482Z,54.20
2022-08-25T13:28:32.973Z,54.30
2022-08-25T13:31:05.503Z,54.30
2022-08-25T13:33:36.435Z,54.20
2022-08-25T13:36:23.466Z,54.10
2022-08-25T13:38:51.914Z,53.90
2022-08-25T13:41:23.844Z,53.80
2022-08-25T13:44:01.083Z,53.80
2022-08-25T13:46:31.640Z,54.00
2022-08-25T13:49:06.466Z,53.90
2022-08-25T13:51:38.483Z,53.90
2022-08-25T13:54:08.468Z,53.70
2022-08-25T13:56:40.913Z,53.60
2022-08-25T13:59:23.828Z,53.50
2022-08-25T14:01:53.255Z,53.20
2022-08-25T14:04:27.198Z,52.90
2022-08-25T14:07:09.973Z,52.80
2022-08-25T14:09:41.683Z,53.30
2022-08-25T14:12:09.504Z,53.40
2022-08-25T14:14:37.285Z,53.50
2022-08-25T14:17:22.191Z,53.40
2022-08-25T14:19:58.412Z,53.40
2022-08-25T14:22:27.053Z,53.10
2022-08-25T14:24:55.714Z,52.70
2022-08-25T14:27:23.698Z,52.70
2022-08-25T14:29:52.925Z,52.60
2022-08-25T14:32:20.932Z,52.30
2022-08-25T14:34:48.802Z,52.10
2022-08-25T14:37:19.913Z,52.50
2022-08-25T14:39:47.893Z,52.80
2022-08-25T14:42:16.677Z,53.00
2022-08-25T14:44:45.707Z,53.00
2022-08-25T14:47:13.501Z,52.80
2022-08-25T14:49:45.772Z,52.80
2022-08-25T14:52:22.520Z,52.80
2022-08-25T14:54:50.699Z,52.70
2022-08-25T14:57:18.474Z,52.20
2022-08-25T14:59:46.278Z,52.20
2022-08-25T15:02:20.134Z,52.50
2022-08-25T15:04:53.453Z,52.50
2022-08-25T15:07:40.150Z,52.50
2022-08-25T15:10:13.666Z,52.40
2022-08-25T15:12:47.894Z,52.40
2022-08-25T15:15:19.356Z,51.80
2022-08-25T15:17:49.450Z,52.20
2022-08-25T15:20:19.061Z,52.40
2022-08-25T15:22:48.566Z,51.90
2022-08-25T15:25:16.678Z,52.30
2022-08-25T15:27:45.949Z,52.30
2022-08-25T15:30:15.062Z,52.40
2022-08-25T15:32:43.016Z,52.30
2022-08-25T15:35:11.745Z,52.10
2022-08-25T15:37:43.601Z,52.50
2022-08-25T15:40:13.754Z,52.30
2022-08-25T15:42:42.992Z,52.30
2022-08-25T15:45:14.474Z,52.10
2022-08-25T15:47:42.242Z,51.60
2022-08-25T15:50:14.390Z,51.90
2022-08-25T15:52:46.480Z,52.00
2022-08-25T15:55:17.344Z,52.00
2022-08-25T15:57:45.131Z,52.00
2022-08-25T16:00:16.708Z,52.00
2022-08-25T16:02:46.323Z,52.30
2022-08-25T16:05:16.234Z,52.60
2022-08-25T16:07:45.736Z,52.80
2022-08-25T16:10:13.808Z,52.90
2022-08-25T16:12:42.953Z,52.80
2022-08-25T16:15:12.200Z,52.90
2022-08-25T16:17:40.818Z,52.90
2022-08-25T16:20:13.840Z,52.90
2022-08-25T16:22:42.845Z,53.00
2022-08-25T16:25:11.910Z,52.90
2022-08-25T16:27:40.087Z,53.10
2022-08-25T16:30:16.751Z,53.30
2022-08-25T16:32:46.238Z,53.50
2022-08-25T16:35:14.577Z,53.60
2022-08-25T16:37:42.757Z,53.40
2022-08-25T16:40:14.834Z,53.60
2022-08-25T16:42:42.920Z,53.60
2022-08-25T16:45:12.845Z,53.60
2022-08-25T16:47:42.707Z,53.60
2022-08-25T16:50:11.073Z,53.80
2022-08-25T16:52:58.125Z,53.60
2022-08-25T16:55:26.974Z,53.50
2022-08-25T16:57:55.143Z,53.80
2022-08-25T17:00:28.082Z,53.80
2022-08-25T17:02:59.158Z,53.90
2022-08-25T17:05:28.230Z,54.00
2022-08-25T17:08:13.652Z,54.20
2022-08-25T17:10:43.830Z,54.20
2022-08-25T17:13:12.757Z,54.20
2022-08-25T17:15:43.755Z,54.20
2022-08-25T17:18:13.240Z,54.40
2022-08-25T17:20:42.447Z,54.50
2022-08-25T17:23:12.109Z,54.60
2022-08-25T17:25:43.469Z,54.80
2022-08-25T17:28:11.954Z,54.80
2022-08-25T17:30:40.167Z,54.90
2022-08-25T17:33:09.256Z,54.90
2022-08-25T17:35:39.970Z,55.00
2022-08-25T17:38:07.918Z,55.00
2022-08-25T17:40:37.406Z,55.10
2022-08-25T17:43:05.812Z,55.10
2022-08-25T17:45:37.241Z,55.20
2022-08-25T17:48:09.167Z,55.30
2022-08-25T17:50:39.001Z,55.40
2022-08-25T17:53:07.291Z,55.50
2022-08-25T17:55:37.874Z,55.60
2022-08-25T17:58:06.090Z,55.60
2022-08-25T18:00:34.386Z,55.60
2022-08-25T18:03:04.055Z,55.70
2022-08-25T18:05:35.113Z,55.80
2022-08-25T18:08:04.485Z,55.90
2022-08-25T18:10:38.145Z,55.90
2022-08-25T18:13:05.926Z,56.00
2022-08-25T18:15:34.448Z,56.00
2022-08-25T18:18:04.491Z,56.10
2022-08-25T18:20:34.006Z,56.20
2022-08-25T18:23:04.349Z,56.20
2022-08-25T18:25:36.798Z,56.20
2022-08-25T18:28:09.583Z,56.90
2022-08-25T18:30:37.417Z,56.40
2022-08-25T18:33:05.358Z,56.40
2022-08-25T18:35:34.633Z,56.50
2022-08-25T18:38:20.020Z,56.60
2022-08-25T18:40:49.358Z,56.60
2022-08-25T18:43:17.516Z,56.70
2022-08-25T18:45:48.188Z,56.70
2022-08-25T18:48:17.296Z,56.80
2022-08-25T18:50:50.650Z,56.90
2022-08-25T18:53:19.960Z,57.00
2022-08-25T18:55:58.602Z,57.10
2022-08-25T18:58:26.904Z,57.20
2022-08-25T19:00:54.818Z,57.30
2022-08-25T19:03:23.387Z,57.30
2022-08-25T19:05:55.031Z,57.40
2022-08-25T19:08:25.757Z,57.50
2022-08-25T19:10:54.468Z,57.60
2022-08-25T19:13:22.909Z,57.70
2022-08-25T19:15:52.310Z,57.70
2022-08-25T19:18:26.152Z,57.80
2022-08-25T19:20:59.141Z,57.90
2022-08-25T19:23:27.048Z,58.00
2022-08-25T19:25:54.828Z,58.10
2022-08-25T19:28:23.957Z,58.20
2022-08-25T19:30:51.855Z,58.20
2022-08-25T19:33:42.447Z,58.40
2022-08-25T19:36:09.887Z,58.40
2022-08-25T19:38:39.305Z,58.50
2022-08-25T19:41:10.561Z,58.50
2022-08-25T19:43:46.714Z,58.60
2022-08-25T19:46:33.082Z,58.70
2022-08-25T19:49:07.594Z,58.80
2022-08-25T19:51:38.576Z,59.00
2022-08-25T19:54:09.262Z,59.10
2022-08-25T19:56:53.703Z,59.20
2022-08-25T19:59:22.888Z,59.20
2022-08-25T20:01:50.746Z,59.30
2022-08-25T20:04:18.616Z,59.40
2022-08-25T20:06:48.115Z,59.60
2022-08-25T20:09:20.771Z,59.60
2022-08-25T20:12:04.987Z,59.70
2022-08-25T20:14:34.957Z,59.70
2022-08-25T20:17:02.830Z,59.80
2022-08-25T20:19:31.051Z,59.80
2022-08-25T20:22:00.167Z,59.90
2022-08-25T20:24:45.502Z,60.00
2022-08-25T20:27:14.624Z,60.00
2022-08-25T20:29:44.615Z,60.10
2022-08-25T20:32:15.694Z,60.20
2022-08-25T20:37:14.136Z,60.30
2022-08-25T20:39:43.137Z,60.40
2022-08-25T20:42:11.257Z,60.40
2022-08-25T20:44:42.064Z,60.40
2022-08-25T20:47:11.347Z,60.50
2022-08-25T20:49:40.001Z,60.60
2022-08-25T20:52:08.502Z,60.70
2022-08-25T20:54:37.619Z,60.80
2022-08-25T20:57:07.957Z,60.90
2022-08-25T20:59:36.073Z,60.90
2022-08-25T21:02:03.997Z,61.00
2022-08-25T21:04:32.065Z,61.10
2022-08-25T21:07:01.076Z,61.10
2022-08-25T21:09:30.039Z,61.20
2022-08-25T21:12:01.315Z,61.20
2022-08-25T21:14:30.117Z,61.30
2022-08-25T21:16:58.611Z,61.30
2022-08-25T21:19:30.310Z,61.40
2022-08-25T21:21:59.479Z,61.50
2022-08-25T21:24:28.609Z,61.60
2022-08-25T21:26:59.534Z,61.70
2022-08-25T21:29:29.965Z,61.70
2022-08-25T21:31:58.476Z,61.70
2022-08-25T21:34:28.216Z,61.70
2022-08-25T21:36:57.866Z,61.80
2022-08-25T21:39:28.059Z,61.80
2022-08-25T21:41:58.535Z,61.90
2022-08-25T21:44:29.398Z,62.00
2022-08-25T21:46:57.313Z,62.10
2022-08-25T21:49:25.172Z,62.20
2022-08-25T21:52:00.099Z,62.20
2022-08-25T21:54:29.404Z,62.20
2022-08-25T21:56:59.777Z,62.30
2022-08-25T21:59:35.782Z,62.30
2022-08-25T22:02:07.359Z,62.50
2022-08-25T22:04:36.848Z,62.40
2022-08-25T22:07:07.176Z,62.50
2022-08-25T22:09:35.312Z,62.50
2022-08-25T22:12:03.285Z,62.50
2022-08-25T22:14:32.930Z,62.60
2022-08-25T22:17:00.859Z,62.60
2022-08-25T22:19:28.902Z,62.70
2022-08-25T22:21:57.556Z,62.70
2022-08-25T22:24:28.286Z,62.80
2022-08-25T22:26:56.409Z,62.90
2022-08-25T22:29:25.309Z,63.00
2022-08-25T22:32:02.167Z,63.00
2022-08-25T22:34:32.916Z,63.20
2022-08-25T22:37:01.281Z,63.20
2022-08-25T22:39:29.918Z,63.20
2022-08-25T22:41:57.994Z,63.30
2022-08-25T22:44:26.620Z,63.40
2022-08-25T22:46:55.689Z,63.50
2022-08-25T22:49:23.765Z,63.50
2022-08-25T22:51:51.689Z,63.60
2022-08-25T22:54:23.925Z,63.60
2022-08-25T22:56:53.673Z,63.70
2022-08-25T22:59:22.592Z,63.80
2022-08-25T23:01:52.360Z,63.90
2022-08-25T23:04:21.696Z,64.00
2022-08-25T23:06:50.584Z,64.00
2022-08-25T23:09:18.683Z,64.10
2022-08-25T23:11:46.586Z,64.20
2022-08-25T23:14:14.382Z,64.40
2022-08-25T23:16:43.323Z,64.50
2022-08-25T23:19:14.327Z,64.50
2022-08-25T23:22:02.305Z,64.60
2022-08-25T23:24:31.053Z,64.70
2022-08-25T23:27:00.613Z,64.70
2022-08-25T23:29:29.162Z,64.80
2022-08-25T23:31:58.313Z,64.80
2022-08-25T23:34:27.500Z,64.90
2022-08-25T23:36:58.186Z,65.00
2022-08-25T23:39:26.022Z,65.00
2022-08-25T23:41:54.225Z,65.10
2022-08-25T23:44:23.551Z,65.10
2022-08-25T23:46:53.748Z,65.10
2022-08-25T23:49:24.186Z,65.20
2022-08-25T23:51:56.061Z,65.20
2022-08-25T23:54:31.060Z,65.50
2022-08-25T23:56:59.536Z,65.40
2022-08-25T23:59:27.493Z,65.50
